Time;durP1;ratioP1;P1;durP2;ratioP2;P2;SDS_P1;SDS_P2;PMS_P1;PMS_P2;Temp;Humidity;BMP_temperature;BMP_pressure;BME280_temperature;BME280_humidity;BME280_pressure;Samples;Min_cycle;Max_cycle;Signal;HPM_P1;HPM_P2
2022/03/12 00:02:21;;;;;;;65.63;49.38;;;18.30;49.20;;;;;;4923808;28;90249;-71
2022/03/12 00:04:46;;;;;;;66.13;49.45;;;18.30;49.30;;;;;;4910579;28;90541;-71
2022/03/12 00:07:13;;;;;;;65.57;49.45;;;18.20;49.30;;;;;;4914820;28;90235;-70
2022/03/12 00:09:39;;;;;;;65.47;49.15;;;18.20;49.30;;;;;;4914637;28;89295;-70
2022/03/12 00:12:05;;;;;;;65.53;49.35;;;18.20;49.30;;;;;;4924574;28;90627;-70
2022/03/12 00:14:32;;;;;;;65.03;49.25;;;18.20;49.90;;;;;;4916936;28;89273;-71
2022/03/12 00:16:57;;;;;;;65.28;49.15;;;18.10;49.30;;;;;;4930846;28;92783;-71
2022/03/12 00:19:23;;;;;;;65.72;49.42;;;18.10;49.30;;;;;;4914468;28;89767;-71
2022/03/12 00:21:49;;;;;;;65.50;49.53;;;18.10;49.30;;;;;;4921966;28;92208;-70
2022/03/12 00:24:15;;;;;;;65.93;49.58;;;18.10;49.40;;;;;;4915549;28;90666;-71
2022/03/12 00:26:43;;;;;;;66.43;49.38;;;18.10;49.50;;;;;;4915988;28;90569;-70
2022/03/12 00:29:13;;;;;;;64.82;49.13;;;18.10;49.50;;;;;;4914764;28;89792;-71
2022/03/12 00:31:44;;;;;;;64.97;49.20;;;18.10;49.50;;;;;;4933021;28;92280;-70
2022/03/12 00:34:10;;;;;;;65.45;49.40;;;18.00;49.40;;;;;;4914129;28;90010;-71
2022/03/12 00:36:36;;;;;;;65.07;49.28;;;18.00;49.40;;;;;;4917831;28;90429;-71
2022/03/12 00:39:03;;;;;;;65.82;49.38;;;18.00;49.50;;;;;;4916997;28;89162;-70
2022/03/12 00:41:29;;;;;;;64.90;49.03;;;18.00;49.50;;;;;;4912485;28;90255;-70
2022/03/12 00:43:55;;;;;;;65.18;49.08;;;18.00;49.50;;;;;;4914626;28;89273;-70
2022/03/12 00:46:22;;;;;;;65.18;49.17;;;18.00;49.50;;;;;;4918932;28;91668;-71
2022/03/12 00:48:48;;;;;;;65.50;49.33;;;18.00;49.60;;;;;;4921361;28;89881;-70
2022/03/12 00:51:14;;;;;;;65.07;49.25;;;18.00;49.60;;;;;;4917610;28;90075;-71
2022/03/12 00:53:40;;;;;;;65.07;49.25;;;17.90;49.60;;;;;;4919511;28;91390;-70
2022/03/12 00:56:07;;;;;;;66.38;49.20;;;17.90;49.60;;;;;;4910822;28;92576;-70
2022/03/12 00:58:35;;;;;;;65.72;49.50;;;17.90;49.60;;;;;;4917094;28;90271;-69
2022/03/12 01:01:02;;;;;;;64.88;49.05;;;17.90;49.60;;;;;;4910334;28;90489;-71
2022/03/12 01:03:27;;;;;;;65.82;49.13;;;17.90;49.60;;;;;;4906400;28;90316;-70
2022/03/12 01:05:58;;;;;;;64.72;49.15;;;17.90;49.70;;;;;;4920940;28;90754;-70
2022/03/12 01:08:25;;;;;;;65.03;48.85;;;17.90;49.70;;;;;;4917376;28;97026;-71
2022/03/12 01:10:52;;;;;;;64.82;49.05;;;17.80;49.70;;;;;;4918232;28;90445;-70
2022/03/12 01:13:18;;;;;;;65.00;49.20;;;17.90;49.80;;;;;;4922745;28;91390;-70
2022/03/12 01:15:44;;;;;;;64.65;49.05;;;17.80;49.70;;;;;;4916384;28;90635;-70
2022/03/12 01:18:21;;;;;;;64.53;48.90;;;17.80;49.70;;;;;;4928391;28;91243;-70
2022/03/12 01:20:47;;;;;;;65.75;49.13;;;17.80;49.80;;;;;;4924260;28;90093;-71
2022/03/12 01:23:14;;;;;;;64.90;49.05;;;17.80;49.80;;;;;;4924749;28;89649;-70
2022/03/12 01:25:41;;;;;;;65.03;48.85;;;17.80;49.80;;;;;;4928278;28;89896;-71
2022/03/12 01:28:12;;;;;;;64.70;49.00;;;17.70;49.80;;;;;;4922249;28;88745;-71
2022/03/12 01:30:41;;;;;;;64.50;48.93;;;17.70;49.80;;;;;;4914858;28;90245;-70
2022/03/12 01:33:07;;;;;;;65.40;49.15;;;17.70;49.90;;;;;;4916116;28;92146;-71
2022/03/12 01:35:32;;;;;;;64.53;48.85;;;17.70;49.90;;;;;;4918459;28;92731;-70
2022/03/12 01:37:59;;;;;;;65.00;49.08;;;17.70;49.90;;;;;;4924322;28;90130;-71
2022/03/12 01:40:26;;;;;;;65.28;49.22;;;17.60;49.90;;;;;;4921599;28;89826;-71
2022/03/12 01:42:52;;;;;;;64.82;49.10;;;17.60;50.00;;;;;;4923867;28;90113;-70
2022/03/12 01:45:29;;;;;;;65.28;49.15;;;17.60;50.00;;;;;;4916425;28;90956;-70
2022/03/12 01:47:56;;;;;;;64.82;48.85;;;17.60;50.00;;;;;;4924600;28;96518;-71
2022/03/12 01:50:34;;;;;;;64.68;48.97;;;17.60;50.00;;;;;;4928547;28;92238;-71
2022/03/12 01:53:03;;;;;;;64.55;48.75;;;17.60;50.10;;;;;;4916030;28;89283;-70
2022/03/12 01:55:32;;;;;;;64.47;49.05;;;17.60;50.10;;;;;;4923909;28;89763;-70
2022/03/12 01:58:01;;;;;;;64.60;49.15;;;17.60;50.00;;;;;;4918913;28;91134;-71
2022/03/12 02:00:37;;;;;;;64.40;48.85;;;17.50;50.00;;;;;;4917874;28;91886;-70
2022/03/12 02:03:03;;;;;;;64.53;48.65;;;17.60;50.10;;;;;;4917716;28;91275;-71
2022/03/12 02:05:29;;;;;;;64.38;48.92;;;17.60;50.10;;;;;;4911949;28;91818;-71
2022/03/12 02:08:01;;;;;;;64.25;48.80;;;17.50;50.00;;;;;;4913882;28;91169;-70
2022/03/12 02:10:27;;;;;;;64.25;48.92;;;17.50;50.00;;;;;;4920767;28;91068;-70
2022/03/12 02:12:53;;;;;;;64.43;49.10;;;17.50;50.10;;;;;;4921693;28;89978;-71
2022/03/12 02:15:20;;;;;;;64.32;48.80;;;17.50;50.10;;;;;;4917141;28;92480;-70
2022/03/12 02:17:46;;;;;;;64.38;48.67;;;17.50;50.10;;;;;;4925402;28;88765;-70
2022/03/12 02:20:15;;;;;;;64.75;48.75;;;17.50;50.10;;;;;;4925964;28;90336;-70
2022/03/12 02:22:42;;;;;;;64.75;48.90;;;17.50;50.20;;;;;;4926133;28;90270;-70
2022/03/12 02:25:08;;;;;;;63.83;48.58;;;17.40;50.10;;;;;;4916573;28;90426;-71
2022/03/12 02:27:34;;;;;;;64.85;49.00;;;17.40;50.20;;;;;;4912285;28;91597;-70
2022/03/12 02:30:01;;;;;;;64.22;48.83;;;17.40;50.20;;;;;;4919332;28;90817;-71
2022/03/12 02:32:28;;;;;;;64.45;48.92;;;17.40;50.20;;;;;;4916900;28;89765;-71
2022/03/12 02:34:56;;;;;;;63.97;48.65;;;17.40;50.20;;;;;;4916514;28;90501;-70
2022/03/12 02:37:30;;;;;;;64.53;48.92;;;17.30;50.20;;;;;;4917442;28;89897;-70
2022/03/12 02:40:03;;;;;;;64.38;48.83;;;17.30;50.20;;;;;;4929749;28;93002;-70
2022/03/12 02:42:29;;;;;;;64.25;48.72;;;17.30;50.20;;;;;;4915928;28;89648;-71
2022/03/12 02:44:55;;;;;;;64.65;48.85;;;17.40;50.20;;;;;;4918833;28;91757;-70
2022/03/12 02:47:25;;;;;;;64.20;48.78;;;17.30;50.10;;;;;;4924265;28;90244;-71
2022/03/12 02:50:02;;;;;;;63.67;48.60;;;17.30;50.10;;;;;;4923720;28;91667;-70
2022/03/12 02:52:30;;;;;;;64.40;48.67;;;17.30;50.20;;;;;;4919566;28;90631;-70
2022/03/12 02:54:57;;;;;;;64.15;48.75;;;17.30;50.30;;;;;;4917273;28;91831;-71
2022/03/12 02:57:26;;;;;;;64.05;48.70;;;17.40;50.30;;;;;;4914864;28;89639;-71
2022/03/12 02:59:53;;;;;;;64.28;48.83;;;17.40;50.40;;;;;;4918866;28;90550;-71
2022/03/12 03:02:31;;;;;;;64.05;48.75;;;17.40;50.40;;;;;;4916143;28;90023;-71
2022/03/12 03:04:58;;;;;;;64.40;48.97;;;17.40;50.40;;;;;;4914724;28;92329;-71
2022/03/12 03:07:24;;;;;;;64.32;48.85;;;17.50;50.40;;;;;;4915419;28;89461;-71
2022/03/12 03:09:50;;;;;;;64.15;48.80;;;17.50;50.30;;;;;;4916057;28;91169;-71
2022/03/12 03:12:19;;;;;;;63.97;48.60;;;17.60;50.30;;;;;;4918270;28;92327;-71
2022/03/12 03:14:47;;;;;;;64.18;48.78;;;17.70;50.30;;;;;;4919477;28;91026;-70
2022/03/12 03:17:13;;;;;;;63.85;48.60;;;17.70;50.20;;;;;;4929111;28;90308;-71
2022/03/12 03:19:40;;;;;;;64.15;48.88;;;17.70;50.20;;;;;;4918258;28;90387;-71
2022/03/12 03:22:06;;;;;;;63.92;48.55;;;17.70;50.10;;;;;;4915882;28;89796;-71
2022/03/12 03:24:32;;;;;;;63.88;48.80;;;17.70;50.10;;;;;;4917585;28;90031;-71
2022/03/12 03:26:59;;;;;;;63.90;48.72;;;17.80;50.00;;;;;;4915115;28;92171;-71
2022/03/12 03:29:29;;;;;;;64.13;48.83;;;17.80;50.00;;;;;;4912885;28;89892;-71
2022/03/12 03:31:55;;;;;;;64.35;48.78;;;17.80;50.00;;;;;;4929424;28;92205;-70
2022/03/12 03:34:22;;;;;;;66.80;48.92;;;17.80;49.90;;;;;;4914374;28;90628;-70
2022/03/12 03:36:48;;;;;;;64.13;48.83;;;17.80;49.90;;;;;;4911154;28;89733;-71
2022/03/12 03:39:15;;;;;;;64.00;48.65;;;17.80;49.80;;;;;;4918817;28;91661;-71
2022/03/12 03:41:41;;;;;;;63.85;48.80;;;17.80;49.80;;;;;;4914837;28;91457;-71
2022/03/12 03:44:07;;;;;;;64.75;48.88;;;17.90;49.80;;;;;;4922565;28;90615;-71
2022/03/12 03:46:34;;;;;;;64.03;48.85;;;17.80;49.70;;;;;;4906745;28;89831;-71
2022/03/12 03:49:01;;;;;;;63.70;48.50;;;17.80;49.70;;;;;;4907408;28;92564;-71
2022/03/12 03:51:26;;;;;;;64.35;48.83;;;17.80;49.70;;;;;;4913154;28;94070;-71
2022/03/12 03:53:52;;;;;;;64.95;48.97;;;17.80;49.70;;;;;;4912546;28;89703;-70
2022/03/12 03:56:18;;;;;;;64.03;48.85;;;17.80;49.60;;;;;;4909240;28;90496;-70
2022/03/12 03:58:45;;;;;;;64.00;48.55;;;17.80;49.70;;;;;;4912219;28;89690;-71
2022/03/12 04:01:15;;;;;;;63.60;48.47;;;17.80;50.30;;;;;;4907009;28;90053;-70
2022/03/12 04:03:48;;;;;;;63.92;48.58;;;17.80;49.70;;;;;;4904322;28;90754;-70
2022/03/12 04:06:16;;;;;;;64.47;48.70;;;17.70;49.70;;;;;;4908675;28;90048;-71
2022/03/12 04:08:42;;;;;;;63.75;48.65;;;17.70;49.60;;;;;;4916530;28;89983;-70
2022/03/12 04:11:13;;;;;;;64.03;48.78;;;17.70;49.60;;;;;;4920627;28;90388;-71
2022/03/12 04:13:39;;;;;;;64.63;48.95;;;17.70;49.70;;;;;;4909454;28;93984;-71
2022/03/12 04:16:06;;;;;;;63.92;48.58;;;17.70;49.70;;;;;;4911839;28;89820;-71
2022/03/12 04:18:35;;;;;;;63.70;48.75;;;17.70;49.70;;;;;;4943802;28;90262;-70
2022/03/12 04:21:00;;;;;;;64.03;48.58;;;17.60;49.60;;;;;;4919676;28;90243;-70
2022/03/12 04:23:27;;;;;;;63.58;48.55;;;17.60;49.60;;;;;;4915011;28;90094;-71
2022/03/12 04:25:55;;;;;;;63.53;48.60;;;17.60;49.70;;;;;;4920848;28;90813;-71
2022/03/12 04:28:22;;;;;;;63.55;48.60;;;17.60;49.70;;;;;;4916537;28;90815;-71
2022/03/12 04:30:47;;;;;;;63.95;48.72;;;17.60;49.70;;;;;;4918689;28;96153;-71
2022/03/12 04:33:14;;;;;;;63.85;48.45;;;17.50;49.70;;;;;;4921068;28;89917;-71
2022/03/12 04:35:42;;;;;;;63.33;48.38;;;17.50;49.80;;;;;;4908770;28;91405;-71
2022/03/12 04:38:09;;;;;;;63.65;48.55;;;17.50;49.80;;;;;;4917754;28;90210;-71
2022/03/12 04:40:38;;;;;;;63.95;48.65;;;17.50;49.80;;;;;;4921200;28;90384;-70
2022/03/12 04:43:06;;;;;;;63.60;48.55;;;17.50;49.90;;;;;;4916092;28;90126;-70
2022/03/12 04:45:33;;;;;;;64.25;48.33;;;17.40;49.90;;;;;;4916924;28;89486;-71
2022/03/12 04:47:59;;;;;;;65.05;48.65;;;17.40;49.80;;;;;;4922850;28;90678;-70
2022/03/12 04:50:24;;;;;;;63.25;48.35;;;17.40;49.90;;;;;;4925171;28;91080;-71
2022/03/12 04:52:52;;;;;;;64.35;48.30;;;17.40;50.00;;;;;;4923640;28;90876;-71
2022/03/12 04:55:23;;;;;;;63.78;48.15;;;17.40;50.00;;;;;;4922899;28;89859;-70
2022/03/12 04:57:49;;;;;;;63.58;48.35;;;17.30;49.90;;;;;;4915960;28;90424;-71
2022/03/12 05:00:29;;;;;;;62.97;48.22;;;17.40;50.00;;;;;;4917062;28;90193;-71
2022/03/12 05:03:02;;;;;;;63.55;48.55;;;17.30;49.90;;;;;;4919612;28;90244;-70
2022/03/12 05:05:28;;;;;;;63.38;48.42;;;17.30;50.00;;;;;;4914476;28;90359;-71
2022/03/12 05:07:59;;;;;;;63.42;48.63;;;17.30;50.00;;;;;;4912136;28;92129;-71
2022/03/12 05:10:28;;;;;;;62.97;48.35;;;17.30;50.00;;;;;;4924696;28;89450;-71
2022/03/12 05:13:00;;;;;;;63.17;48.22;;;17.30;50.00;;;;;;4914170;28;90057;-71
2022/03/12 05:15:34;;;;;;;63.15;48.30;;;17.30;50.10;;;;;;4915483;28;90076;-70
2022/03/12 05:18:01;;;;;;;62.90;48.20;;;17.40;50.10;;;;;;4920081;28;91831;-70
2022/03/12 05:20:27;;;;;;;63.92;48.55;;;17.30;50.10;;;;;;4921404;28;91503;-70
2022/03/12 05:22:53;;;;;;;63.67;48.60;;;17.40;50.20;;;;;;4919897;28;91439;-71
2022/03/12 05:25:20;;;;;;;64.15;48.65;;;17.40;50.30;;;;;;4920071;28;95597;-71
2022/03/12 05:27:51;;;;;;;63.45;48.20;;;17.40;50.40;;;;;;4922580;28;90706;-70
2022/03/12 05:30:17;;;;;;;63.92;48.55;;;17.50;50.40;;;;;;4919641;28;90001;-71
2022/03/12 05:32:43;;;;;;;63.75;48.55;;;17.50;50.40;;;;;;4913616;28;91098;-70
2022/03/12 05:35:09;;;;;;;63.55;48.45;;;17.60;50.30;;;;;;4911833;28;90027;-70
2022/03/12 05:37:40;;;;;;;62.83;48.13;;;17.70;50.20;;;;;;4922844;28;90745;-69
2022/03/12 05:40:07;;;;;;;;;;;17.80;50.20;;;;;;4921974;28;89459;-70
2022/03/12 05:42:34;;;;;;;63.85;48.22;;;17.80;50.10;;;;;;4919919;28;90482;-70
2022/03/12 05:45:02;;;;;;;63.80;48.53;;;17.90;50.00;;;;;;4920775;28;97052;-70
2022/03/12 05:47:27;;;;;;;63.80;48.38;;;18.00;49.90;;;;;;4920887;28;92191;-71
2022/03/12 05:49:53;;;;;;;64.35;48.47;;;18.00;49.80;;;;;;4912488;28;90509;-70
2022/03/12 05:52:19;;;;;;;63.08;48.25;;;18.10;49.80;;;;;;4921686;28;89636;-70
2022/03/12 05:54:46;;;;;;;63.70;48.65;;;18.10;49.60;;;;;;4919896;28;89561;-71
2022/03/12 05:57:12;;;;;;;64.53;48.53;;;18.20;49.50;;;;;;4919507;28;90047;-70
2022/03/12 05:59:37;;;;;;;63.90;48.45;;;18.20;49.60;;;;;;4916778;28;91037;-71
2022/03/12 06:02:03;;;;;;;63.97;48.47;;;18.30;49.50;;;;;;4938422;28;90166;-71
2022/03/12 06:04:29;;;;;;;63.55;48.20;;;18.30;49.40;;;;;;4914028;28;90821;-70
2022/03/12 06:06:55;;;;;;;63.72;48.50;;;18.40;49.80;;;;;;4906659;28;91292;-70
2022/03/12 06:09:21;;;;;;;64.18;48.55;;;18.40;49.30;;;;;;4940246;28;91786;-70
2022/03/12 06:11:53;;;;;;;64.43;48.42;;;18.50;49.40;;;;;;4920718;28;89918;-71
2022/03/12 06:14:19;;;;;;;;;;;18.50;49.30;;;;;;4925832;28;89915;-70
2022/03/12 06:16:47;;;;;;;63.50;48.45;;;18.50;49.30;;;;;;4918586;28;91273;-71
2022/03/12 06:19:13;;;;;;;63.80;48.55;;;18.60;49.30;;;;;;4932742;28;89876;-71
2022/03/12 06:21:39;;;;;;;63.55;48.45;;;18.60;49.10;;;;;;4923029;28;89701;-71
2022/03/12 06:24:05;;;;;;;63.45;48.20;;;18.70;49.10;;;;;;4912200;28;89132;-71
2022/03/12 06:26:35;;;;;;;63.92;48.75;;;18.70;49.00;;;;;;4917043;28;90399;-71
2022/03/12 06:29:03;;;;;;;64.17;48.57;;;18.70;48.90;;;;;;4918446;28;89934;-70
2022/03/12 06:31:31;;;;;;;64.80;48.65;;;18.70;48.90;;;;;;4926507;28;90987;-71
2022/03/12 06:33:57;;;;;;;63.85;48.45;;;18.80;48.90;;;;;;4915697;28;91856;-70
2022/03/12 06:36:23;;;;;;;63.63;48.42;;;18.80;48.90;;;;;;4912944;28;90590;-71
2022/03/12 06:38:49;;;;;;;64.10;48.65;;;18.80;48.80;;;;;;4922038;28;89948;-71
2022/03/12 06:41:18;;;;;;;63.55;48.58;;;18.80;49.40;;;;;;4918435;28;90546;-70
2022/03/12 06:43:44;;;;;;;64.10;48.60;;;18.80;48.70;;;;;;4924665;28;89606;-71
2022/03/12 06:46:14;;;;;;;64.95;48.90;;;18.90;48.70;;;;;;4916399;28;89792;-70
2022/03/12 06:48:40;;;;;;;64.82;49.03;;;18.90;48.70;;;;;;4914834;28;90197;-70
2022/03/12 06:51:06;;;;;;;64.90;48.90;;;18.90;48.70;;;;;;4916405;28;90164;-71
2022/03/12 06:53:32;;;;;;;64.53;48.72;;;18.90;48.70;;;;;;4917021;28;90134;-70
2022/03/12 06:55:58;;;;;;;64.20;48.65;;;18.90;48.60;;;;;;4910284;28;92031;-71
2022/03/12 06:58:25;;;;;;;64.95;48.85;;;18.90;48.60;;;;;;4916814;28;90639;-71
2022/03/12 07:00:51;;;;;;;64.55;48.88;;;19.00;48.60;;;;;;4920992;28;90375;-71
2022/03/12 07:03:16;;;;;;;63.97;48.53;;;18.90;48.50;;;;;;4927297;28;90318;-71
2022/03/12 07:05:42;;;;;;;64.45;48.75;;;19.00;48.60;;;;;;4912882;28;92801;-71
2022/03/12 07:08:07;;;;;;;64.40;48.63;;;19.00;48.50;;;;;;4903360;28;90901;-71
2022/03/12 07:10:33;;;;;;;64.68;48.97;;;19.10;48.60;;;;;;4922629;28;90166;-71
2022/03/12 07:12:59;;;;;;;64.95;48.85;;;19.00;48.40;;;;;;4918848;28;89001;-70
2022/03/12 07:15:25;;;;;;;64.47;48.90;;;19.10;48.50;;;;;;4921231;28;90039;-71
2022/03/12 07:17:50;;;;;;;65.22;48.85;;;19.10;48.40;;;;;;4924246;28;90795;-70
2022/03/12 07:20:17;;;;;;;64.57;48.83;;;19.10;48.40;;;;;;4916699;28;91099;-71
2022/03/12 07:22:43;;;;;;;65.95;48.83;;;19.10;48.30;;;;;;4922692;28;89859;-71
2022/03/12 07:25:11;;;;;;;65.63;49.13;;;19.10;48.30;;;;;;4919543;28;91881;-71
2022/03/12 07:27:37;;;;;;;64.85;49.05;;;19.10;48.30;;;;;;4910256;28;95775;-71
2022/03/12 07:30:04;;;;;;;65.18;49.00;;;19.10;48.30;;;;;;4917207;28;89861;-71
2022/03/12 07:32:29;;;;;;;65.20;48.85;;;19.10;48.30;;;;;;4932840;28;89825;-71
2022/03/12 07:34:55;;;;;;;66.40;49.08;;;19.10;48.20;;;;;;4918235;28;90663;-71
2022/03/12 07:37:21;;;;;;;65.05;48.83;;;19.10;48.20;;;;;;4915353;28;90423;-71
2022/03/12 07:39:47;;;;;;;66.30;49.10;;;19.20;48.30;;;;;;4912543;28;90333;-70
2022/03/12 07:42:13;;;;;;;66.32;49.25;;;19.20;48.20;;;;;;4915339;28;89662;-70
2022/03/12 07:44:39;;;;;;;66.03;49.05;;;19.20;48.20;;;;;;4918649;28;90987;-70
2022/03/12 07:47:06;;;;;;;65.55;49.00;;;19.20;48.30;;;;;;4921998;28;89970;-71
2022/03/12 07:49:32;;;;;;;65.30;48.97;;;19.20;48.10;;;;;;4911349;28;90243;-71
2022/03/12 07:51:58;;;;;;;65.85;49.33;;;19.20;48.20;;;;;;4914213;28;89954;-72
2022/03/12 07:54:23;;;;;;;65.10;49.08;;;19.20;48.20;;;;;;4912963;28;90392;-71
2022/03/12 07:56:50;;;;;;;65.30;49.05;;;19.20;48.20;;;;;;4922317;28;90138;-71
2022/03/12 07:59:16;;;;;;;65.40;49.25;;;19.20;48.20;;;;;;4924236;28;90375;-71
2022/03/12 08:01:41;;;;;;;65.30;48.97;;;19.20;48.10;;;;;;4915257;28;89304;-72
2022/03/12 08:04:07;;;;;;;65.18;48.95;;;19.20;48.10;;;;;;4915926;28;90440;-71
2022/03/12 08:06:33;;;;;;;65.72;49.13;;;19.30;48.10;;;;;;4907928;28;90457;-71
2022/03/12 08:09:00;;;;;;;65.25;49.10;;;19.30;48.20;;;;;;4921320;28;90777;-71
2022/03/12 08:11:29;;;;;;;65.07;48.70;;;19.20;48.10;;;;;;4918121;28;89703;-71
2022/03/12 08:14:09;;;;;;;65.18;48.85;;;19.20;48.00;;;;;;4921775;28;89926;-71
2022/03/12 08:16:36;;;;;;;66.05;49.22;;;19.20;48.00;;;;;;4932923;28;91365;-72
2022/03/12 08:19:04;;;;;;;66.22;49.25;;;19.20;48.10;;;;;;4915346;28;91853;-71
2022/03/12 08:21:30;;;;;;;65.70;49.05;;;19.30;48.10;;;;;;4917699;28;89464;-71
2022/03/12 08:23:56;;;;;;;65.20;48.95;;;19.30;48.10;;;;;;4915997;28;93053;-71
2022/03/12 08:26:23;;;;;;;66.07;49.05;;;19.20;48.10;;;;;;4914139;28;90898;-71
2022/03/12 08:28:49;;;;;;;65.10;48.85;;;19.20;48.60;;;;;;4908038;28;92582;-72
2022/03/12 08:31:15;;;;;;;66.30;49.13;;;19.20;48.00;;;;;;4916063;28;92634;-71
2022/03/12 08:33:41;;;;;;;65.35;49.08;;;19.20;48.00;;;;;;4916692;28;91070;-71
2022/03/12 08:36:07;;;;;;;65.40;49.13;;;19.20;48.00;;;;;;4914723;28;90154;-71
2022/03/12 08:38:34;;;;;;;67.85;49.35;;;19.20;48.00;;;;;;4910070;28;91249;-71
2022/03/12 08:41:01;;;;;;;66.50;49.28;;;19.20;48.10;;;;;;4916756;28;91403;-71
2022/03/12 08:43:27;;;;;;;66.10;49.05;;;19.20;48.10;;;;;;4914106;28;90332;-71
2022/03/12 08:45:53;;;;;;;65.72;49.35;;;19.20;48.10;;;;;;4913322;28;90721;-71
2022/03/12 08:48:19;;;;;;;66.25;49.10;;;19.10;48.10;;;;;;4921204;28;89901;-71
2022/03/12 08:50:46;;;;;;;65.90;49.15;;;19.10;48.10;;;;;;4917044;28;89182;-71
2022/03/12 08:53:11;;;;;;;65.90;49.35;;;19.10;48.10;;;;;;4913660;28;91218;-71
2022/03/12 08:55:38;;;;;;;66.05;49.25;;;19.10;48.10;;;;;;4911885;28;91370;-71
2022/03/12 08:58:05;;;;;;;66.00;49.08;;;19.10;48.10;;;;;;4931364;28;90886;-71
2022/03/12 09:00:31;;;;;;;65.70;49.22;;;19.10;48.10;;;;;;4928730;28;89996;-71
2022/03/12 09:02:58;;;;;;;66.93;49.30;;;19.10;48.10;;;;;;4912601;28;91461;-72
2022/03/12 09:05:23;;;;;;;66.20;49.13;;;19.10;48.10;;;;;;4912614;28;89869;-71
2022/03/12 09:07:51;;;;;;;65.75;49.17;;;19.10;48.10;;;;;;4897764;28;89997;-71
2022/03/12 09:10:19;;;;;;;65.20;49.00;;;19.10;48.20;;;;;;4904501;28;90182;-73
2022/03/12 09:12:45;;;;;;;66.18;49.42;;;19.10;48.20;;;;;;4916098;28;90119;-71
2022/03/12 09:15:12;;;;;;;65.78;49.28;;;19.10;48.20;;;;;;4925849;28;92198;-72
2022/03/12 09:17:38;;;;;;;67.18;49.53;;;19.10;48.30;;;;;;4916657;28;90551;-72
2022/03/12 09:20:05;;;;;;;66.35;49.28;;;19.10;48.20;;;;;;4907982;28;89844;-70
2022/03/12 09:22:31;;;;;;;67.13;49.35;;;19.00;48.20;;;;;;4911789;28;93349;-70
2022/03/12 09:24:57;;;;;;;65.82;49.35;;;19.10;48.40;;;;;;4908478;28;90798;-71
2022/03/12 09:27:23;;;;;;;66.80;49.38;;;19.10;48.30;;;;;;4916923;28;89776;-69
2022/03/12 09:29:49;;;;;;;66.57;49.47;;;19.10;48.30;;;;;;4903657;28;91649;-70
2022/03/12 09:32:14;;;;;;;67.10;49.60;;;19.10;48.30;;;;;;4906781;28;90605;-71
2022/03/12 09:34:40;;;;;;;66.50;49.42;;;19.10;48.30;;;;;;4916794;28;92530;-71
2022/03/12 09:37:09;;;;;;;66.18;49.13;;;19.10;48.30;;;;;;4910877;28;91333;-68
2022/03/12 09:39:35;;;;;;;67.38;49.55;;;19.10;48.40;;;;;;4908960;28;93571;-68
2022/03/12 09:42:01;;;;;;;66.82;49.55;;;19.10;48.30;;;;;;4909764;28;90602;-69
2022/03/12 09:44:27;;;;;;;66.40;49.40;;;19.20;48.30;;;;;;4914314;28;90224;-68
2022/03/12 09:46:53;;;;;;;66.13;49.30;;;19.20;48.30;;;;;;4919358;28;90553;-69
2022/03/12 09:49:19;;;;;;;66.50;49.30;;;19.20;48.30;;;;;;4904988;28;97102;-70
2022/03/12 09:51:45;;;;;;;67.25;49.40;;;19.20;48.30;;;;;;4922036;28;90654;-69
2022/03/12 09:54:11;;;;;;;66.28;49.42;;;19.20;48.20;;;;;;4910643;28;90710;-71
2022/03/12 09:56:38;;;;;;;66.63;49.58;;;19.20;48.20;;;;;;4915711;28;90064;-68
2022/03/12 09:59:07;;;;;;;66.40;49.42;;;19.20;48.20;;;;;;4937675;28;89384;-68
2022/03/12 10:01:33;;;;;;;66.38;49.35;;;19.30;48.20;;;;;;4914218;28;92618;-68
2022/03/12 10:04:02;;;;;;;65.90;49.22;;;19.30;48.20;;;;;;4902052;28;90835;-69
2022/03/12 10:06:31;;;;;;;66.72;49.55;;;19.30;48.20;;;;;;4915705;28;94831;-69
2022/03/12 10:08:57;;;;;;;66.68;49.22;;;19.30;48.10;;;;;;4900168;28;97065;-70
2022/03/12 10:11:23;;;;;;;67.15;49.65;;;19.40;48.20;;;;;;4913334;28;90876;-72
2022/03/12 10:13:49;;;;;;;67.75;49.92;;;19.40;48.10;;;;;;4925939;28;90316;-70
2022/03/12 10:16:18;;;;;;;67.57;49.63;;;19.30;48.10;;;;;;4926875;28;92215;-71
2022/03/12 10:18:45;;;;;;;67.68;49.78;;;19.40;48.10;;;;;;4919147;28;90903;-68
2022/03/12 10:21:10;;;;;;;67.72;49.85;;;19.40;48.10;;;;;;4914692;28;89542;-69
2022/03/12 10:23:36;;;;;;;68.38;49.95;;;19.40;48.10;;;;;;4906408;28;93955;-71
2022/03/12 10:26:02;;;;;;;67.72;49.88;;;19.40;48.00;;;;;;4910403;28;91438;-72
2022/03/12 10:28:32;;;;;;;67.70;49.70;;;19.40;48.00;;;;;;4909801;28;95297;-69
2022/03/12 10:30:59;;;;;;;68.47;50.03;;;19.50;47.90;;;;;;4910732;28;91856;-71
2022/03/12 10:33:25;;;;;;;67.88;50.00;;;19.50;47.90;;;;;;4916723;28;90363;-71
2022/03/12 10:35:52;;;;;;;68.38;50.10;;;19.50;47.90;;;;;;4909734;28;91767;-68
2022/03/12 10:38:18;;;;;;;67.70;49.80;;;19.50;47.90;;;;;;4910094;28;90299;-68
2022/03/12 10:40:46;;;;;;;68.25;49.85;;;19.60;47.90;;;;;;4916654;28;99701;-69
2022/03/12 10:43:15;;;;;;;67.68;49.70;;;19.60;47.80;;;;;;4931067;28;89962;-71
2022/03/12 10:45:50;;;;;;;67.20;49.53;;;19.60;47.70;;;;;;4916765;28;90200;-70
2022/03/12 10:48:19;;;;;;;67.60;49.72;;;19.60;47.70;;;;;;4912850;28;89976;-70
2022/03/12 10:50:49;;;;;;;68.03;50.03;;;19.60;47.70;;;;;;4907422;28;92525;-69
2022/03/12 10:53:17;;;;;;;67.60;49.85;;;19.60;47.70;;;;;;4907152;28;89280;-71
2022/03/12 10:55:44;;;;;;;67.20;49.72;;;19.60;47.70;;;;;;4914781;28;90693;-71
2022/03/12 10:58:20;;;;;;;68.28;49.97;;;19.60;47.70;;;;;;4923249;28;90278;-71
2022/03/12 11:00:53;;;;;;;68.53;50.03;;;19.60;47.70;;;;;;4922045;28;97607;-71
2022/03/12 11:03:27;;;;;;;68.43;50.20;;;19.60;48.20;;;;;;4919729;28;89412;-71
2022/03/12 11:05:55;;;;;;;68.32;49.78;;;19.60;47.60;;;;;;4905404;28;90661;-71
2022/03/12 11:08:23;;;;;;;68.18;50.30;;;19.60;47.60;;;;;;4901317;28;90885;-72
2022/03/12 11:11:11;;;;;;;67.68;49.92;;;19.60;47.70;;;;;;4916569;28;90894;-71
2022/03/12 11:13:42;;;;;;;68.03;50.00;;;19.60;47.70;;;;;;4916452;28;93068;-72
2022/03/12 11:16:14;;;;;;;67.90;50.03;;;19.60;47.70;;;;;;4914247;28;91445;-71
2022/03/12 11:18:52;;;;;;;68.22;50.15;;;19.50;47.60;;;;;;4917103;28;93028;-71
2022/03/12 11:21:41;;;;;;;68.43;50.17;;;19.50;47.70;;;;;;4917996;28;93162;-70
2022/03/12 11:24:17;;;;;;;70.40;50.13;;;19.50;47.70;;;;;;4933555;28;91569;-71
2022/03/12 11:26:55;;;;;;;70.38;50.13;;;19.50;47.70;;;;;;4913214;28;91396;-71
2022/03/12 11:29:24;;;;;;;69.07;50.20;;;19.50;47.70;;;;;;4928716;28;91044;-71
2022/03/12 11:31:57;;;;;;;69.07;50.15;;;19.40;47.70;;;;;;4919584;28;90167;-71
2022/03/12 11:34:30;;;;;;;68.10;50.05;;;19.40;47.80;;;;;;4922684;28;90632;-71
2022/03/12 11:36:55;;;;;;;69.07;50.40;;;19.40;47.80;;;;;;4911063;28;90056;-72
2022/03/12 11:39:31;;;;;;;68.70;50.25;;;19.40;47.80;;;;;;4910913;28;89940;-71
2022/03/12 11:42:03;;;;;;;69.68;50.22;;;19.40;47.80;;;;;;4914796;28;95959;-71
2022/03/12 11:44:30;;;;;;;;;;;19.40;47.90;;;;;;4916792;28;94640;-71
2022/03/12 11:46:56;;;;;;;68.32;50.08;;;19.40;47.90;;;;;;4908403;28;96270;-68
2022/03/12 11:49:23;;;;;;;69.18;50.22;;;19.30;47.90;;;;;;4915169;28;94928;-69
2022/03/12 11:51:50;;;;;;;69.15;50.35;;;19.30;47.90;;;;;;4908680;28;96679;-70
2022/03/12 11:54:15;;;;;;;68.72;50.35;;;19.30;47.90;;;;;;4926460;28;96411;-69
2022/03/12 11:56:41;;;;;;;69.88;50.58;;;19.30;47.90;;;;;;4915225;28;94905;-70
2022/03/12 11:59:07;;;;;;;70.80;50.70;;;19.30;47.90;;;;;;4913393;28;96578;-70
2022/03/12 12:01:36;;;;;;;70.30;50.53;;;19.30;47.90;;;;;;4902281;28;95877;-71
2022/03/12 12:04:05;;;;;;;69.50;50.60;;;19.30;47.90;;;;;;4902870;28;98148;-70
2022/03/12 12:06:33;;;;;;;70.03;50.63;;;19.30;47.90;;;;;;4903640;28;96409;-69
2022/03/12 12:09:02;;;;;;;69.53;50.35;;;19.30;48.00;;;;;;4909058;28;95625;-71
2022/03/12 12:11:31;;;;;;;70.13;50.78;;;19.30;47.90;;;;;;4907988;28;96641;-71
2022/03/12 12:13:58;;;;;;;69.28;50.53;;;19.30;48.00;;;;;;4908148;28;95662;-71
2022/03/12 12:16:25;;;;;;;71.13;50.72;;;19.30;47.90;;;;;;4924945;28;96288;-71
2022/03/12 12:18:51;;;;;;;70.15;50.58;;;19.30;47.90;;;;;;4917225;28;101438;-71
2022/03/12 12:21:17;;;;;;;69.47;50.65;;;19.30;48.00;;;;;;4912155;28;95043;-71
2022/03/12 12:23:44;;;;;;;70.05;50.72;;;19.40;48.00;;;;;;4916343;28;96794;-71
2022/03/12 12:26:11;;;;;;;72.38;50.70;;;19.30;48.00;;;;;;4905378;28;95252;-71
2022/03/12 12:28:56;;;;;;;69.68;50.60;;;19.30;48.00;;;;;;4904246;28;95124;-70
2022/03/12 12:31:28;;;;;;;70.95;51.15;;;19.30;48.00;;;;;;4921723;28;95645;-70